Time;durP1;ratioP1;P1;durP2;ratioP2;P2;SDS_P1;SDS_P2;PMS_P1;PMS_P2;Temp;Humidity;BMP_temperature;BMP_pressure;BME280_temperature;BME280_humidity;BME280_pressure;Samples;Min_cycle;Max_cycle;Signal;HPM_P1;HPM_P2
2022/10/12 00:00:21;;;;;;;11.27;4.60;;;2.70;99.90;;;;;;4369074;28;656413;-68
2022/10/12 00:03:10;;;;;;;9.45;4.45;;;2.60;99.90;;;;;;4347434;28;658597;-68
2022/10/12 00:06:02;;;;;;;11.43;4.80;;;2.60;99.90;;;;;;4349853;28;657310;-68
2022/10/12 00:08:49;;;;;;;11.10;5.57;;;2.60;99.90;;;;;;4349497;28;657571;-68
2022/10/12 00:11:37;;;;;;;17.43;5.10;;;2.60;99.90;;;;;;4356944;28;659026;-68
2022/10/12 00:14:24;;;;;;;13.77;5.20;;;2.50;99.90;;;;;;4370653;28;657704;-68
2022/10/12 00:17:12;;;;;;;15.70;4.90;;;2.60;99.90;;;;;;4348865;28;657866;-68
2022/10/12 00:19:59;;;;;;;12.93;4.93;;;2.50;99.90;;;;;;4374851;28;658176;-68
2022/10/12 00:22:47;;;;;;;14.13;5.43;;;2.50;99.90;;;;;;4353456;28;657679;-67
2022/10/12 00:25:36;;;;;;;9.50;5.20;;;2.50;99.90;;;;;;4374201;28;660201;-68
2022/10/12 00:28:23;;;;;;;12.87;4.80;;;2.50;99.90;;;;;;4353653;28;658549;-68
2022/10/12 00:31:11;;;;;;;10.43;4.80;;;2.50;99.90;;;;;;4351957;28;658468;-68
2022/10/12 00:34:01;;;;;;;11.37;4.57;;;2.50;99.90;;;;;;4367285;28;658112;-68
2022/10/12 00:36:48;;;;;;;8.13;4.83;;;2.50;99.90;;;;;;4348387;28;658963;-68
2022/10/12 00:39:35;;;;;;;6.78;4.30;;;2.50;99.90;;;;;;4356913;28;657360;-68
2022/10/12 00:42:22;;;;;;;7.70;4.87;;;2.50;99.90;;;;;;4368495;28;658280;-68
2022/10/12 00:45:10;;;;;;;8.73;4.60;;;2.50;99.90;;;;;;4368734;28;656391;-68
2022/10/12 00:47:58;;;;;;;12.80;4.60;;;2.50;99.90;;;;;;4371077;28;657059;-68
2022/10/12 00:50:46;;;;;;;10.17;4.37;;;2.50;99.90;;;;;;4352839;28;657940;-68
2022/10/12 00:53:35;;;;;;;11.83;4.57;;;2.50;99.90;;;;;;4372118;28;658654;-68
2022/10/12 00:56:23;;;;;;;12.20;4.20;;;2.50;99.90;;;;;;4353912;28;658499;-68
2022/10/12 00:59:12;;;;;;;13.30;4.07;;;2.50;99.90;;;;;;4354936;28;657915;-68
2022/10/12 01:02:00;;;;;;;11.37;4.20;;;2.50;99.90;;;;;;4367215;28;657526;-68
2022/10/12 01:04:47;;;;;;;9.47;4.13;;;2.50;99.90;;;;;;4375512;28;658725;-68
2022/10/12 01:07:36;;;;;;;8.70;4.27;;;2.50;99.90;;;;;;4371754;28;657237;-68
2022/10/12 01:10:23;;;;;;;9.23;4.00;;;2.60;99.90;;;;;;4348355;28;657282;-68
2022/10/12 01:13:11;;;;;;;12.45;4.03;;;2.60;99.90;;;;;;4354331;28;657295;-68
2022/10/12 01:16:02;;;;;;;11.33;3.73;;;2.60;99.90;;;;;;4371084;28;658714;-68
2022/10/12 01:18:52;;;;;;;8.20;4.00;;;2.60;99.90;;;;;;4352562;28;657193;-68
2022/10/12 01:21:40;;;;;;;8.67;3.90;;;2.60;99.90;;;;;;4353151;28;656709;-68
2022/10/12 01:24:45;;;;;;;12.90;3.57;;;2.60;99.90;;;;;;4354977;28;657039;-68
2022/10/12 01:27:35;;;;;;;13.80;4.03;;;2.50;99.90;;;;;;4346311;28;659451;-68
2022/10/12 01:30:24;;;;;;;7.90;3.60;;;2.60;99.90;;;;;;4348734;28;658376;-68
2022/10/12 01:33:17;;;;;;;9.70;4.07;;;2.50;99.90;;;;;;4350448;28;656593;-68
2022/10/12 01:36:06;;;;;;;7.30;3.57;;;2.60;99.90;;;;;;4347169;28;657634;-68
2022/10/12 01:38:55;;;;;;;8.80;3.80;;;2.50;99.90;;;;;;4351166;28;657861;-68
2022/10/12 01:41:44;;;;;;;14.63;4.50;;;2.50;99.90;;;;;;4345479;28;657477;-68
2022/10/12 01:44:31;;;;;;;14.80;4.40;;;2.50;99.90;;;;;;4352527;28;658420;-68
2022/10/12 01:47:20;;;;;;;12.18;4.35;;;2.50;99.90;;;;;;4371926;28;658608;-68
2022/10/12 01:50:09;;;;;;;8.97;3.70;;;2.50;99.90;;;;;;4347706;28;658434;-68
2022/10/12 01:52:58;;;;;;;12.93;3.47;;;2.50;99.90;;;;;;4353076;28;657673;-68
2022/10/12 01:55:48;;;;;;;10.47;3.60;;;2.60;99.90;;;;;;4346998;28;657530;-68
2022/10/12 01:58:45;;;;;;;6.43;3.53;;;2.60;99.90;;;;;;4356342;28;657720;-68
2022/10/12 02:01:33;;;;;;;11.17;3.50;;;2.50;99.90;;;;;;4329820;28;656958;-68
2022/10/12 02:04:24;;;;;;;7.55;3.25;;;2.50;99.90;;;;;;4353377;28;657944;-68
2022/10/12 02:07:12;;;;;;;9.67;3.00;;;2.50;99.90;;;;;;4351974;28;656839;-68
2022/10/12 02:09:59;;;;;;;5.10;2.60;;;2.50;99.90;;;;;;4381714;28;656954;-68
2022/10/12 02:12:46;;;;;;;8.07;2.93;;;2.40;99.90;;;;;;4357562;28;656152;-68
2022/10/12 02:15:33;;;;;;;7.20;2.70;;;2.40;99.90;;;;;;4368450;28;657295;-68
2022/10/12 02:18:21;;;;;;;7.37;2.90;;;2.40;99.90;;;;;;4357554;28;656645;-68
2022/10/12 02:21:09;;;;;;;5.60;2.70;;;2.40;99.90;;;;;;4378765;28;658022;-68
2022/10/12 02:23:57;;;;;;;8.30;2.97;;;2.40;99.90;;;;;;4354407;28;656753;-68
2022/10/12 02:26:44;;;;;;;9.13;3.20;;;2.40;99.90;;;;;;4376373;28;656948;-68
2022/10/12 02:29:33;;;;;;;5.40;2.70;;;2.40;99.90;;;;;;4358579;28;656562;-68
2022/10/12 02:32:21;;;;;;;7.22;2.90;;;2.40;99.90;;;;;;4361418;28;656333;-68
2022/10/12 02:35:11;;;;;;;7.78;2.78;;;2.40;99.90;;;;;;4374808;28;657320;-68
2022/10/12 02:38:01;;;;;;;12.37;3.23;;;2.40;99.90;;;;;;4354511;28;656567;-68
2022/10/12 02:40:51;;;;;;;9.97;2.77;;;2.40;99.90;;;;;;4352285;28;659221;-68
2022/10/12 02:43:39;;;;;;;4.73;2.63;;;2.30;99.90;;;;;;4353876;28;656981;-68
2022/10/12 02:46:26;;;;;;;4.47;2.80;;;2.30;99.90;;;;;;4356342;28;656581;-68
2022/10/12 02:49:13;;;;;;;12.83;2.83;;;2.30;99.90;;;;;;4371821;28;656886;-68
2022/10/12 02:52:00;;;;;;;5.82;2.60;;;2.30;99.90;;;;;;4357067;28;657665;-68
2022/10/12 02:54:49;;;;;;;9.07;2.67;;;2.40;99.90;;;;;;4365906;28;657397;-68
2022/10/12 02:57:36;;;;;;;8.80;2.83;;;2.40;99.90;;;;;;4355566;28;657249;-68
2022/10/12 03:00:23;;;;;;;8.07;2.90;;;2.40;99.90;;;;;;4367446;28;657798;-68
2022/10/12 03:03:10;;;;;;;5.47;2.50;;;2.40;99.90;;;;;;4357143;28;656918;-68
2022/10/12 03:05:57;;;;;;;4.97;2.53;;;2.30;99.90;;;;;;4371735;28;658269;-68
2022/10/12 03:08:45;;;;;;;10.50;2.87;;;2.40;99.90;;;;;;4367460;28;656887;-68
2022/10/12 03:11:34;;;;;;;13.77;2.50;;;2.40;99.90;;;;;;4369572;28;659213;-68
2022/10/12 03:14:21;;;;;;;5.67;2.70;;;2.40;99.90;;;;;;4351250;28;657863;-68
2022/10/12 03:17:08;;;;;;;6.07;2.67;;;2.40;99.90;;;;;;4374081;28;657776;-68
2022/10/12 03:19:56;;;;;;;7.80;2.70;;;2.40;99.90;;;;;;4351583;28;656860;-68
2022/10/12 03:22:43;;;;;;;5.67;2.50;;;2.40;99.90;;;;;;4372367;28;657360;-68
2022/10/12 03:25:30;;;;;;;9.00;2.40;;;2.40;99.90;;;;;;4358895;28;656685;-68
2022/10/12 03:28:19;;;;;;;5.63;2.77;;;2.30;99.90;;;;;;4365457;28;657124;-68
2022/10/12 03:31:06;;;;;;;10.13;2.40;;;2.30;99.90;;;;;;4355779;28;656355;-68
2022/10/12 03:33:53;;;;;;;6.20;2.63;;;2.40;99.90;;;;;;4376953;28;658726;-68
2022/10/12 03:36:40;;;;;;;7.87;2.20;;;2.40;99.90;;;;;;4352618;28;657211;-68
2022/10/12 03:39:27;;;;;;;4.33;2.40;;;2.30;99.90;;;;;;4368962;28;657629;-68
2022/10/12 03:42:14;;;;;;;10.33;3.10;;;2.30;99.90;;;;;;4371441;28;656363;-68
2022/10/12 03:45:03;;;;;;;7.47;2.63;;;2.30;99.90;;;;;;4351113;28;658112;-68
2022/10/12 03:47:50;;;;;;;11.33;2.63;;;2.30;99.90;;;;;;4354331;28;657336;-68
2022/10/12 03:50:38;;;;;;;7.80;2.43;;;2.30;99.90;;;;;;4370548;28;659445;-68
2022/10/12 03:53:26;;;;;;;8.47;2.60;;;2.30;99.90;;;;;;4354589;28;656759;-68
2022/10/12 03:56:13;;;;;;;9.13;2.80;;;2.30;99.90;;;;;;4375332;28;657923;-68
2022/10/12 03:59:00;;;;;;;14.23;2.93;;;2.30;99.90;;;;;;4355274;28;658888;-68
2022/10/12 04:01:49;;;;;;;6.50;3.03;;;2.30;99.90;;;;;;4374970;28;657461;-68
2022/10/12 04:04:36;;;;;;;10.13;2.40;;;2.30;99.90;;;;;;4357795;28;656454;-68
2022/10/12 04:07:23;;;;;;;5.50;2.30;;;2.40;99.90;;;;;;4372707;28;659149;-68
2022/10/12 04:10:10;;;;;;;9.80;2.30;;;2.30;99.90;;;;;;4356307;28;656357;-68
2022/10/12 04:12:57;;;;;;;4.73;2.30;;;2.40;99.90;;;;;;4372672;28;657640;-68
2022/10/12 04:15:44;;;;;;;11.30;2.63;;;2.40;99.90;;;;;;4375327;28;656527;-68
2022/10/12 04:18:33;;;;;;;9.60;3.33;;;2.40;99.90;;;;;;4350687;28;658142;-68
2022/10/12 04:21:24;;;;;;;14.37;4.03;;;2.30;99.90;;;;;;4356755;28;656356;-68
2022/10/12 04:24:11;;;;;;;12.03;5.00;;;2.40;99.90;;;;;;4348966;28;657720;-68
2022/10/12 04:26:58;;;;;;;12.07;4.47;;;2.40;99.90;;;;;;4372946;28;658482;-68
2022/10/12 04:29:46;;;;;;;10.57;4.87;;;2.50;99.90;;;;;;4350363;28;657391;-68
2022/10/12 04:32:33;;;;;;;14.30;4.90;;;2.50;99.90;;;;;;4376264;28;657966;-68
2022/10/12 04:35:22;;;;;;;11.73;4.72;;;2.50;99.90;;;;;;4359752;28;657994;-68
2022/10/12 04:38:09;;;;;;;11.03;3.60;;;2.50;99.90;;;;;;4376044;28;658138;-68
2022/10/12 04:40:56;;;;;;;8.45;3.30;;;2.50;99.90;;;;;;4349035;28;657261;-68
2022/10/12 04:43:43;;;;;;;13.07;3.50;;;2.60;99.90;;;;;;4374441;28;657934;-68
2022/10/12 04:46:30;;;;;;;7.63;3.27;;;2.60;99.90;;;;;;4354942;28;657527;-68
2022/10/12 04:49:18;;;;;;;11.23;3.53;;;2.60;99.90;;;;;;4374306;28;657579;-68
2022/10/12 04:52:07;;;;;;;14.47;3.70;;;2.50;99.90;;;;;;4364878;28;658062;-68
2022/10/12 04:54:54;;;;;;;7.53;3.80;;;2.50;99.90;;;;;;4369848;28;657374;-68
2022/10/12 04:57:41;;;;;;;10.27;3.53;;;2.50;99.90;;;;;;4347093;28;656814;-68
2022/10/12 05:00:28;;;;;;;11.57;3.80;;;2.50;99.90;;;;;;4372234;28;658587;-68
2022/10/12 05:03:15;;;;;;;15.70;3.58;;;2.50;99.90;;;;;;4351970;28;658506;-68
2022/10/12 05:06:02;;;;;;;9.43;3.13;;;2.50;99.90;;;;;;4372841;28;658859;-68
2022/10/12 05:08:51;;;;;;;7.13;3.13;;;2.50;99.90;;;;;;4367129;28;656420;-68
2022/10/12 05:11:38;;;;;;;18.73;3.30;;;2.50;99.90;;;;;;4348613;28;657175;-68
2022/10/12 05:14:25;;;;;;;12.83;3.07;;;2.60;99.90;;;;;;4350804;28;657843;-68
2022/10/12 05:17:12;;;;;;;7.67;2.83;;;2.60;99.90;;;;;;4374374;28;658536;-68
2022/10/12 05:20:00;;;;;;;5.53;2.43;;;2.70;99.90;;;;;;4371117;28;656670;-68
2022/10/12 05:22:47;;;;;;;7.67;3.43;;;2.80;99.90;;;;;;4372891;28;657882;-68
2022/10/12 05:25:36;;;;;;;8.50;3.37;;;2.90;99.90;;;;;;4376688;28;657039;-68
2022/10/12 05:28:24;;;;;;;13.30;3.20;;;2.90;99.90;;;;;;4346769;28;656998;-68
2022/10/12 05:31:11;;;;;;;12.00;3.60;;;3.00;99.90;;;;;;4350794;28;657705;-68
2022/10/12 05:33:58;;;;;;;12.07;3.63;;;3.10;99.90;;;;;;4376414;28;658429;-68
2022/10/12 05:36:45;;;;;;;13.23;3.57;;;3.10;99.90;;;;;;4357952;28;657817;-68
2022/10/12 05:39:32;;;;;;;10.33;3.20;;;3.30;99.90;;;;;;4377132;28;657863;-65
2022/10/12 05:42:21;;;;;;;9.37;3.57;;;3.40;99.90;;;;;;4373626;28;657317;-64
2022/10/12 05:45:09;;;;;;;10.40;3.80;;;3.50;99.90;;;;;;4346064;28;657293;-65
2022/10/12 05:47:56;;;;;;;8.17;3.53;;;3.70;99.90;;;;;;4353562;28;657659;-65
2022/10/12 05:50:43;;;;;;;14.83;3.87;;;3.80;99.90;;;;;;4378835;28;657086;-65
2022/10/12 05:53:30;;;;;;;12.63;4.00;;;4.00;99.90;;;;;;4353415;28;658562;-66
2022/10/12 05:56:18;;;;;;;7.70;3.77;;;4.10;99.90;;;;;;4376381;28;658206;-65
2022/10/12 05:59:06;;;;;;;11.77;3.87;;;4.40;99.90;;;;;;4367708;28;656581;-66
2022/10/12 06:01:54;;;;;;;14.90;4.20;;;4.60;99.90;;;;;;4366847;28;657935;-65
2022/10/12 06:04:41;;;;;;;14.17;5.00;;;4.70;99.90;;;;;;4340174;28;657564;-65
2022/10/12 06:07:28;;;;;;;11.33;3.93;;;4.80;99.90;;;;;;4374740;28;658160;-65
2022/10/12 06:10:15;;;;;;;11.63;4.00;;;5.00;99.90;;;;;;4356891;28;657911;-66
2022/10/12 06:13:02;;;;;;;13.47;5.20;;;5.10;99.90;;;;;;4375773;28;658669;-66
2022/10/12 06:15:52;;;;;;;16.37;5.47;;;5.30;99.90;;;;;;4373896;28;658024;-67
2022/10/12 06:18:39;;;;;;;15.13;4.80;;;5.50;99.90;;;;;;4376482;28;657524;-65
2022/10/12 06:21:26;;;;;;;17.43;4.70;;;5.80;99.90;;;;;;4343177;28;657704;-65
2022/10/12 06:24:13;;;;;;;13.73;4.50;;;6.00;99.90;;;;;;4363260;28;660219;-65
2022/10/12 06:27:00;;;;;;;11.27;3.15;;;6.20;99.90;;;;;;4352011;28;657847;-66
2022/10/12 06:29:47;;;;;;;15.77;4.43;;;6.40;99.90;;;;;;4369756;28;658635;-65
2022/10/12 06:32:36;;;;;;;16.03;4.30;;;6.50;99.90;;;;;;4370797;28;657377;-65
2022/10/12 06:35:23;;;;;;;15.63;5.40;;;6.70;99.90;;;;;;4344526;28;658893;-65
2022/10/12 06:38:10;;;;;;;19.17;5.77;;;6.90;99.90;;;;;;4353378;28;657842;-67
2022/10/12 06:40:57;;;;;;;18.73;5.07;;;7.10;99.90;;;;;;4376023;28;658858;-65
2022/10/12 06:43:44;;;;;;;13.17;5.10;;;7.30;99.90;;;;;;4370299;28;658180;-65
2022/10/12 06:46:32;;;;;;;15.37;6.30;;;7.50;99.90;;;;;;4350186;28;658697;-66
2022/10/12 06:49:20;;;;;;;12.77;5.80;;;7.70;99.90;;;;;;4372377;28;657919;-65
2022/10/12 06:52:07;;;;;;;18.97;6.27;;;7.90;99.90;;;;;;4346033;28;659711;-65
2022/10/12 06:54:55;;;;;;;21.97;6.80;;;8.00;99.90;;;;;;4370496;28;657706;-67
2022/10/12 06:57:42;;;;;;;18.37;6.43;;;8.20;99.90;;;;;;4379334;28;657601;-65
2022/10/12 07:00:29;;;;;;;17.77;6.40;;;8.40;99.90;;;;;;4374573;28;657884;-65
2022/10/12 07:03:17;;;;;;;16.23;6.70;;;8.40;99.90;;;;;;4358646;28;657696;-66
2022/10/12 07:06:10;;;;;;;19.40;7.50;;;8.60;99.90;;;;;;4374626;28;657700;-66
2022/10/12 07:08:57;;;;;;;20.77;7.60;;;8.80;99.90;;;;;;4329974;28;658305;-65
2022/10/12 07:11:44;;;;;;;19.97;7.40;;;8.90;99.90;;;;;;4370784;28;658285;-66
2022/10/12 07:14:31;;;;;;;20.23;7.13;;;9.10;99.90;;;;;;4352309;28;658312;-65
2022/10/12 07:17:18;;;;;;;17.10;5.40;;;9.30;99.90;;;;;;4381162;28;659040;-66
2022/10/12 07:20:06;;;;;;;12.57;4.70;;;9.40;99.90;;;;;;4350732;28;657708;-67
2022/10/12 07:22:55;;;;;;;13.63;3.90;;;9.60;99.90;;;;;;4373698;28;658640;-66
2022/10/12 07:25:48;;;;;;;13.20;4.90;;;9.70;99.90;;;;;;4355615;28;657997;-65
2022/10/12 07:28:35;;;;;;;17.33;5.50;;;9.80;99.90;;;;;;4326826;28;657770;-66
2022/10/12 07:31:22;;;;;;;14.50;4.17;;;10.20;99.90;;;;;;4374696;28;659300;-65
2022/10/12 07:34:10;;;;;;;9.73;3.27;;;10.50;99.90;;;;;;4364035;28;658268;-67
2022/10/12 07:36:57;;;;;;;11.30;3.40;;;10.60;99.90;;;;;;4378110;28;657621;-66
2022/10/12 07:39:46;;;;;;;11.30;2.47;;;10.90;99.90;;;;;;4369977;28;659488;-65
2022/10/12 07:42:33;;;;;;;11.63;3.10;;;11.20;99.90;;;;;;4347241;28;659776;-66
2022/10/12 07:45:20;;;;;;;8.83;3.17;;;11.40;99.90;;;;;;4354519;28;658685;-67
2022/10/12 07:48:07;;;;;;;11.13;2.60;;;11.60;99.90;;;;;;4373804;28;658872;-66
2022/10/12 07:50:56;;;;;;;7.70;2.60;;;11.70;99.90;;;;;;4369077;28;659177;-67
2022/10/12 07:53:43;;;;;;;6.13;2.50;;;12.00;99.90;;;;;;4373163;28;659276;-66
2022/10/12 07:56:31;;;;;;;9.03;2.80;;;12.00;99.90;;;;;;4355603;28;658122;-67
2022/10/12 07:59:19;;;;;;;10.90;2.70;;;12.30;99.90;;;;;;4374960;28;657230;-66
2022/10/12 08:02:06;;;;;;;6.17;2.53;;;12.70;99.90;;;;;;4350179;28;658635;-66
2022/10/12 08:04:53;;;;;;;10.57;3.43;;;12.80;99.90;;;;;;4374066;28;658674;-67
2022/10/12 08:07:40;;;;;;;8.20;2.70;;;13.10;99.90;;;;;;4351479;28;658759;-66
2022/10/12 08:10:28;;;;;;;10.50;2.93;;;13.40;99.90;;;;;;4370818;28;657529;-65
2022/10/12 08:13:17;;;;;;;10.07;3.47;;;13.30;99.90;;;;;;4346858;28;658599;-66
2022/10/12 08:16:04;;;;;;;10.97;3.37;;;13.50;99.90;;;;;;4369235;28;658370;-66
2022/10/12 08:18:51;;;;;;;15.33;3.83;;;13.60;99.90;;;;;;4345964;28;659712;-66
2022/10/12 08:21:40;;;;;;;14.40;3.27;;;13.20;99.90;;;;;;4368103;28;658350;-66
2022/10/12 08:24:27;;;;;;;12.33;3.10;;;13.50;99.90;;;;;;4345007;28;659991;-66
2022/10/12 08:27:14;;;;;;;7.93;2.73;;;13.70;99.90;;;;;;4360252;28;658889;-65
2022/10/12 08:30:03;;;;;;;10.47;3.23;;;13.70;99.90;;;;;;4351515;28;657785;-66
2022/10/12 08:32:50;;;;;;;9.33;3.07;;;13.80;99.90;;;;;;4359349;28;658870;-66
2022/10/12 08:35:38;;;;;;;10.40;3.07;;;14.30;99.90;;;;;;4368209;28;659254;-67
2022/10/12 08:38:25;;;;;;;13.73;2.90;;;14.70;99.90;;;;;;4351602;28;658429;-66
2022/10/12 08:41:21;;;;;;;10.30;3.20;;;14.80;99.90;;;;;;4367221;28;658962;-66
2022/10/12 08:44:17;;;;;;;10.67;3.20;;;14.90;99.90;;;;;;4348546;28;658524;-65
2022/10/12 08:47:09;;;;;;;8.27;3.20;;;15.00;99.90;;;;;;4345171;28;659343;-66
2022/10/12 08:49:57;;;;;;;9.37;3.40;;;15.20;99.90;;;;;;4329517;28;657818;-66
2022/10/12 08:52:48;;;;;;;12.50;3.47;;;15.50;99.90;;;;;;4369925;28;657508;-65
2022/10/12 08:55:39;;;;;;;12.93;3.70;;;15.60;99.90;;;;;;4352034;28;659903;-66
2022/10/12 08:58:28;;;;;;;14.10;3.27;;;15.70;99.90;;;;;;4347630;28;659323;-66
2022/10/12 09:01:21;;;;;;;9.87;3.07;;;15.80;99.90;;;;;;4352323;28;659060;-66
2022/10/12 09:04:16;;;;;;;8.27;2.40;;;15.70;99.90;;;;;;4348516;28;658416;-66
2022/10/12 09:07:08;;;;;;;10.37;2.93;;;16.00;99.90;;;;;;4345190;28;657987;-66
2022/10/12 09:10:01;;;;;;;7.87;2.90;;;16.40;99.90;;;;;;4328766;28;658429;-66
2022/10/12 09:12:52;;;;;;;9.47;2.00;;;16.90;99.90;;;;;;4345050;28;658848;-67
2022/10/12 09:15:41;;;;;;;11.60;1.97;;;16.70;94.80;;;;;;4345220;28;658082;-67
2022/10/12 09:18:33;;;;;;;7.27;1.83;;;17.00;93.70;;;;;;4342393;28;659239;-65
2022/10/12 09:21:23;;;;;;;7.57;2.17;;;17.10;92.00;;;;;;4333560;28;657782;-67
2022/10/12 09:24:13;;;;;;;6.77;2.33;;;16.70;96.00;;;;;;4352067;28;657361;-66
2022/10/12 09:27:00;;;;;;;10.63;2.10;;;17.50;95.30;;;;;;4353564;28;657645;-67
2022/10/12 09:29:48;;;;;;;12.20;2.13;;;18.00;90.00;;;;;;4371006;28;660224;-67
2022/10/12 09:32:40;;;;;;;8.20;1.83;;;17.80;90.40;;;;;;4347720;28;658643;-67
2022/10/12 09:35:28;;;;;;;10.40;2.30;;;17.90;81.90;;;;;;4352191;28;658950;-66
2022/10/12 09:38:16;;;;;;;7.83;1.80;;;18.20;84.30;;;;;;4359394;28;660053;-67
2022/10/12 09:41:04;;;;;;;8.77;2.47;;;18.30;75.50;;;;;;4368904;28;658129;-66
2022/10/12 09:43:52;;;;;;;6.90;1.87;;;18.20;77.20;;;;;;4348824;28;657923;-67
2022/10/12 09:46:41;;;;;;;8.20;2.00;;;17.80;77.80;;;;;;4368112;28;656736;-66
2022/10/12 09:49:40;;;;;;;8.00;2.10;;;18.30;78.90;;;;;;4340907;28;658776;-66
2022/10/12 09:52:29;;;;;;;7.37;1.70;;;18.60;73.20;;;;;;4324244;28;659295;-66
2022/10/12 09:55:23;;;;;;;8.30;2.67;;;17.60;74.20;;;;;;4344008;28;657752;-66
2022/10/12 09:58:16;;;;;;;11.00;2.47;;;17.90;81.60;;;;;;4325884;28;657604;-66
2022/10/12 10:01:20;;;;;;;8.17;2.30;;;17.60;81.00;;;;;;4345154;28;659285;-66
2022/10/12 10:04:22;;;;;;;8.27;2.27;;;17.80;81.10;;;;;;4323986;28;658126;-66
2022/10/12 10:07:22;;;;;;;10.87;2.10;;;18.00;79.50;;;;;;4342274;28;658069;-66
2022/10/12 10:10:20;;;;;;;11.23;2.20;;;18.40;81.50;;;;;;4337287;28;659108;-66
2022/10/12 10:13:14;;;;;;;10.43;2.03;;;18.30;79.20;;;;;;4324074;28;660104;-66
2022/10/12 10:16:05;;;;;;;10.07;2.37;;;18.90;73.30;;;;;;4328185;28;659173;-66
2022/10/12 10:18:56;;;;;;;6.47;2.10;;;19.00;72.40;;;;;;4352423;28;660456;-66
2022/10/12 10:21:43;;;;;;;6.87;2.07;;;19.40;74.00;;;;;;4344523;28;658965;-66
2022/10/12 10:24:31;;;;;;;10.60;2.60;;;19.80;70.40;;;;;;4357742;28;657894;-67
2022/10/12 10:27:42;;;;;;;7.00;2.40;;;19.90;69.30;;;;;;4358885;28;659729;-66
2022/10/12 10:30:30;;;;;;;9.77;2.20;;;19.80;67.20;;;;;;4334362;28;657772;-66
2022/10/12 10:33:18;;;;;;;5.83;1.77;;;20.30;68.40;;;;;;4351185;28;658610;-66
2022/10/12 10:36:08;;;;;;;7.97;2.27;;;20.50;66.00;;;;;;4350832;28;657637;-66
2022/10/12 10:38:57;;;;;;;6.67;2.50;;;20.70;61.90;;;;;;4349888;28;657075;-66
2022/10/12 10:41:45;;;;;;;14.77;3.00;;;20.40;63.60;;;;;;4370036;28;657499;-66
2022/10/12 10:44:33;;;;;;;7.53;2.20;;;19.60;65.80;;;;;;4373746;28;658289;-66
2022/10/12 10:47:21;;;;;;;7.73;2.20;;;19.60;66.20;;;;;;4358179;28;657573;-67
2022/10/12 10:50:20;;;;;;;12.07;2.47;;;19.90;62.70;;;;;;4372970;28;658424;-66
2022/10/12 10:53:20;;;;;;;8.73;2.70;;;19.60;66.00;;;;;;4320662;28;659379;-66
2022/10/12 10:56:08;;;;;;;12.33;2.70;;;19.50;62.00;;;;;;4325401;28;658645;-67
2022/10/12 10:58:56;;;;;;;9.50;2.47;;;19.80;65.40;;;;;;4349206;28;658193;-67
2022/10/12 11:01:48;;;;;;;10.13;2.60;;;19.90;68.00;;;;;;4371716;28;657820;-66
2022/10/12 11:04:39;;;;;;;7.73;2.33;;;20.10;62.60;;;;;;4335508;28;658870;-67
2022/10/12 11:07:29;;;;;;;10.70;2.30;;;21.40;62.90;;;;;;4354552;28;657440;-66
2022/10/12 11:10:21;;;;;;;9.07;2.03;;;22.10;56.90;;;;;;4358929;28;659105;-66
2022/10/12 11:13:12;;;;;;;7.07;2.20;;;22.70;57.10;;;;;;4356172;28;658183;-66
2022/10/12 11:16:02;;;;;;;10.07;2.47;;;22.70;56.20;;;;;;4342220;28;657878;-67
2022/10/12 11:18:52;;;;;;;9.43;2.47;;;21.60;58.70;;;;;;4345039;28;659300;-66
2022/10/12 11:21:45;;;;;;;8.30;2.30;;;21.80;60.10;;;;;;4341604;28;658041;-66
2022/10/12 11:24:35;;;;;;;8.33;2.37;;;22.20;57.90;;;;;;4349438;28;659398;-66
2022/10/12 11:27:23;;;;;;;7.83;2.20;;;22.40;54.60;;;;;;4344557;28;658728;-66
2022/10/12 11:30:14;;;;;;;12.17;3.70;;;22.10;53.90;;;;;;4350106;28;660032;-66
2022/10/12 11:33:05;;;;;;;9.70;2.63;;;21.60;56.60;;;;;;4351544;28;658546;-67
2022/10/12 11:35:52;;;;;;;9.47;3.67;;;20.30;57.30;;;;;;4345061;28;658470;-66
2022/10/12 11:38:43;;;;;;;10.83;2.70;;;21.20;57.30;;;;;;4372277;28;658372;-66
2022/10/12 11:41:33;;;;;;;9.73;2.93;;;21.30;57.50;;;;;;4334855;28;659729;-67
2022/10/12 11:44:22;;;;;;;9.77;2.67;;;21.70;57.30;;;;;;4362555;28;657770;-67
2022/10/12 11:47:13;;;;;;;8.97;2.60;;;22.10;55.60;;;;;;4375052;28;657953;-66
2022/10/12 11:50:02;;;;;;;9.87;2.77;;;21.80;55.30;;;;;;4333944;28;657976;-67
2022/10/12 11:52:50;;;;;;;9.73;2.57;;;20.00;56.90;;;;;;4365881;28;657508;-68
2022/10/12 11:55:45;;;;;;;6.83;2.20;;;18.00;60.00;;;;;;4352547;28;658411;-66
2022/10/12 11:58:32;;;;;;;11.13;2.70;;;17.70;63.00;;;;;;4347719;28;657780;-66
2022/10/12 12:01:29;;;;;;;15.03;3.30;;;17.40;64.10;;;;;;4370428;28;658471;-67
2022/10/12 12:04:25;;;;;;;12.90;2.90;;;17.50;64.70;;;;;;4325448;28;659753;-66
2022/10/12 12:07:52;;;;;;;8.90;3.03;;;17.60;63.60;;;;;;4328828;28;659453;-66
2022/10/12 12:11:06;;;;;;;12.67;2.77;;;18.20;65.50;;;;;;4341183;28;657833;-66
2022/10/12 12:14:20;;;;;;;9.13;2.40;;;19.00;61.70;;;;;;4343279;28;659016;-66
2022/10/12 12:17:14;;;;;;;10.30;2.77;;;19.90;61.20;;;;;;4346233;28;658638;-66
2022/10/12 12:20:01;;;;;;;8.27;3.00;;;20.50;58.70;;;;;;4321263;28;659050;-66
2022/10/12 12:22:49;;;;;;;8.47;3.00;;;20.90;56.00;;;;;;4369219;28;659141;-67
2022/10/12 12:25:36;;;;;;;9.70;2.57;;;20.30;56.70;;;;;;4352794;28;658039;-66
2022/10/12 12:28:24;;;;;;;10.10;2.50;;;20.30;58.80;;;;;;4368867;28;658531;-66
2022/10/12 12:31:14;;;;;;;9.53;2.80;;;19.50;58.30;;;;;;4348213;28;659967;-66
2022/10/12 12:34:03;;;;;;;12.83;3.07;;;19.00;58.20;;;;;;4352448;28;657314;-67
2022/10/12 12:36:51;;;;;;;10.63;2.70;;;18.30;59.40;;;;;;4355600;28;659277;-67
2022/10/12 12:39:38;;;;;;;10.87;2.73;;;17.70;59.40;;;;;;4367506;28;660109;-66
2022/10/12 12:42:26;;;;;;;12.10;2.70;;;17.10;60.20;;;;;;4351666;28;658778;-66
2022/10/12 12:45:52;;;;;;;12.33;2.87;;;16.80;62.40;;;;;;4361217;28;659569;-67
2022/10/12 12:49:00;;;;;;;12.07;2.63;;;17.30;61.40;;;;;;4348965;28;658647;-66
2022/10/12 12:51:47;;;;;;;11.40;2.63;;;19.00;61.30;;;;;;4322798;28;659713;-66
2022/10/12 12:54:35;;;;;;;11.13;2.80;;;20.00;57.60;;;;;;4367670;28;658495;-67
2022/10/12 12:57:43;;;;;;;6.40;2.20;;;21.50;55.10;;;;;;4373840;28;658078;-66
2022/10/12 13:00:30;;;;;;;10.97;2.30;;;22.00;52.90;;;;;;4327372;28;657427;-67
2022/10/12 13:03:57;;;;;;;7.20;2.37;;;22.50;50.80;;;;;;4360609;28;659380;-66
2022/10/12 13:07:15;;;;;;;9.53;2.53;;;22.40;49.50;;;;;;4346174;28;657636;-66
2022/10/12 13:10:15;;;;;;;9.67;2.50;;;23.30;49.90;;;;;;4351392;28;658126;-67
2022/10/12 13:13:08;;;;;;;8.53;2.40;;;24.50;49.80;;;;;;4331353;28;658951;-66
2022/10/12 13:16:02;;;;;;;10.20;2.80;;;23.80;48.20;;;;;;4328202;28;657588;-66
2022/10/12 13:18:51;;;;;;;13.90;2.80;;;24.60;46.80;;;;;;4343532;28;658500;-66
2022/10/12 13:21:41;;;;;;;8.67;2.70;;;23.90;45.20;;;;;;4348687;28;659900;-66
2022/10/12 13:24:30;;;;;;;7.77;2.73;;;24.60;46.90;;;;;;4341711;28;659133;-67
2022/10/12 13:27:19;;;;;;;9.50;2.40;;;25.80;44.00;;;;;;4351011;28;658869;-66
2022/10/12 13:30:12;;;;;;;10.13;2.77;;;26.30;42.50;;;;;;4352278;28;657436;-66
2022/10/12 13:33:03;;;;;;;10.75;3.25;;;26.80;39.50;;;;;;4344274;28;658233;-66
2022/10/12 13:35:54;;;;;;;8.82;2.50;;;26.80;41.00;;;;;;4336346;28;659550;-68
2022/10/12 13:38:42;;;;;;;9.18;2.60;;;27.20;39.80;;;;;;4356085;28;657736;-67
2022/10/12 13:41:30;;;;;;;12.90;2.83;;;28.10;38.80;;;;;;4362299;28;657895;-67
2022/10/12 13:44:22;;;;;;;10.48;2.90;;;28.20;37.80;;;;;;4350090;28;660114;-66
2022/10/12 13:47:21;;;;;;;14.75;3.20;;;27.80;37.90;;;;;;4349940;28;659531;-66
2022/10/12 13:50:16;;;;;;;9.40;3.28;;;25.90;38.60;;;;;;4345266;28;658821;-66
2022/10/12 13:53:13;;;;;;;9.13;2.72;;;25.30;39.90;;;;;;4352272;28;658063;-66
2022/10/12 13:56:04;;;;;;;9.47;2.70;;;26.30;39.70;;;;;;4329683;28;657275;-67
2022/10/12 13:58:52;;;;;;;12.68;3.70;;;27.30;39.20;;;;;;4343654;28;657503;-67
2022/10/12 14:01:48;;;;;;;7.43;2.67;;;27.40;38.10;;;;;;4366988;28;659381;-66
2022/10/12 14:04:35;;;;;;;8.40;2.40;;;25.50;40.20;;;;;;4321455;28;658467;-67
2022/10/12 14:07:24;;;;;;;9.45;2.38;;;25.40;39.90;;;;;;4366963;28;657652;-66
2022/10/12 14:10:15;;;;;;;10.55;2.72;;;25.20;39.50;;;;;;4351514;28;657426;-66
2022/10/12 14:13:04;;;;;;;9.60;3.00;;;27.00;39.20;;;;;;4348028;28;660149;-66
2022/10/12 14:15:51;;;;;;;7.88;2.50;;;27.30;37.40;;;;;;4345404;28;658039;-66
2022/10/12 14:18:39;;;;;;;6.85;2.70;;;28.80;35.70;;;;;;4360191;28;657852;-67
2022/10/12 14:21:27;;;;;;;8.57;2.35;;;29.20;34.80;;;;;;4350694;28;657243;-66
2022/10/12 14:24:16;;;;;;;6.85;2.35;;;30.00;34.80;;;;;;4373784;28;657805;-66
2022/10/12 14:27:04;;;;;;;9.38;2.47;;;28.50;34.30;;;;;;4347326;28;658316;-67
2022/10/12 14:29:55;;;;;;;8.00;2.38;;;27.90;36.10;;;;;;4353201;28;658406;-66
2022/10/12 14:32:43;;;;;;;8.23;2.60;;;28.30;35.90;;;;;;4347271;28;658866;-66